Terminal Aerodrome Forecast
Issued by NWS Rapid City, SD

Home | Current Version | Previous Version | Text Only | Print | Product List | Glossary Off
Versions: 1 2 3 4 5 6 7 8 9 10 11 12 13 14 15 16

000
FTUS43 KUNR 230520
TAFRAP
TAF
KRAP 230520Z 2306/2406 24005KT P6SM SKC
     FM231000 31011KT P6SM SCT250
     FM231200 33016G26KT P6SM SCT250
     FM231400 35028G40KT P6SM SCT250
     FM232000 34018G28KT P6SM SCT250
     FM240200 34013KT P6SM SCT250=

USA.gov is the U.S. government's official web portal to all federal, state and local government web resources and services.